Airfield :
LOGIN :

Register | Disclaimer

   EN    FR    IT 

 










Legend :    VFR   Marginal VFR   IFR   Intensive IFR   Very Intensive IFR
Visi :
Ceiling :
>= 8 km
>= 3000ft
5 to 8 km
1000 to 3000 ft
1500m to 5 km
500 to 1000 ft
800 to 1500m
200 to 500 ft
< 800m
< 200 ft
Symbols :   Thunderstorms  Fog  Heavy snow  Heavy precipitations  Wind > 20 kt
SIGMETs :     Misc.  Thunderstorms  Icing  Turbulence  Mountain Waves  Volcanic Ashes






- Airport Elevation : 1213 ft
- IATA code : SCQ


LEST - Santiago de Compostela

CURRENT METAR :
  • 291100Z 34013KT 300V010 8000 -RA SCT013 BKN020 BKN038 14/13 Q1012 NOSIG

EXPIRED METARs :
  • 291030Z 34007KT 310V010 9999 SCT013 SCT019 15/13 Q1011 NOSIG
  • 291000Z 33009KT 300V010 9999 SCT014 BKN040 14/12 Q1012 NOSIG
  • 290930Z 34008KT 9999 FEW005 BKN013 BKN040 13/13 Q1011 NOSIG
  • 290900Z 34007KT 300V010 8000 VCFG SCT005 BKN013 BKN025 13/13 Q1012 NOSIG
  • 290830Z 31003KT 280V340 8000 VCFG FEW002 SCT004 BKN033 13/13 Q1011 NOSIG

TAF COR TAF LEST
Valid from the 29 at 06:00 until the 30 at 06:00 UTC


290556Z 2906/3006 28009KT 9999 FEW005 BKN025 TX16/2914Z TN07/3005Z
TEMPO 2906/2915 BKN010
PROB40
TEMPO 2906/2918 3000 RA BR BKN005
PROB40
TEMPO 2906/2912 0800 RADZ BCFG BKN002
TEMPO 2906/2918 36010KT



MET'MAP, your aeronautical weather chart ! - Copyright ORBIFLY December 2007 - Disclaimer

ORBIFLY MET'MAP TEAM :

Programming & Development : Alexandra Zaïnal
Original concept : Baudouin d'Aumeries
Technical & hardware support : Manuel Goepfert
Assistance : Marc-Olivier Méhu




SOURCES & CREDITS :

   NOAA